sensor_id;sensor_type;location;lat;lon;timestamp;pressure;altitude;pressure_sealevel;temperature;humidity
13734;BME280;43298;52.560;13.508;2024-02-16T00:01:01;99887.91;;;10.29;100.00
13734;BME280;43298;52.560;13.508;2024-02-16T00:03:27;99882.94;;;10.26;100.00
13734;BME280;43298;52.560;13.508;2024-02-16T00:05:54;99883.75;;;10.26;100.00
13734;BME280;43298;52.560;13.508;2024-02-16T00:08:20;99888.44;;;10.20;100.00
13734;BME280;43298;52.560;13.508;2024-02-16T00:10:47;99887.81;;;10.15;100.00
13734;BME280;43298;52.560;13.508;2024-02-16T00:13:14;99882.56;;;10.16;100.00
13734;BME280;43298;52.560;13.508;2024-02-16T00:15:40;99877.69;;;10.12;100.00
13734;BME280;43298;52.560;13.508;2024-02-16T00:18:07;99879.66;;;10.07;100.00
13734;BME280;43298;52.560;13.508;2024-02-16T00:20:33;99874.63;;;10.04;100.00
13734;BME280;43298;52.560;13.508;2024-02-16T00:22:59;99876.53;;;10.00;100.00
13734;BME280;43298;52.560;13.508;2024-02-16T00:25:28;99882.53;;;10.01;100.00
13734;BME280;43298;52.560;13.508;2024-02-16T00:27:54;99882.72;;;9.98;100.00
13734;BME280;43298;52.560;13.508;2024-02-16T00:30:21;99885.53;;;9.93;100.00
13734;BME280;43298;52.560;13.508;2024-02-16T00:32:48;99880.69;;;10.03;100.00
13734;BME280;43298;52.560;13.508;2024-02-16T00:35:18;99868.03;;;9.98;100.00
13734;BME280;43298;52.560;13.508;2024-02-16T00:37:45;99855.88;;;10.00;100.00
13734;BME280;43298;52.560;13.508;2024-02-16T00:40:12;99862.78;;;10.00;100.00
13734;BME280;43298;52.560;13.508;2024-02-16T00:42:39;99856.13;;;9.96;100.00
13734;BME280;43298;52.560;13.508;2024-02-16T00:45:05;99856.03;;;9.97;100.00
13734;BME280;43298;52.560;13.508;2024-02-16T00:47:31;99857.19;;;9.92;100.00
13734;BME280;43298;52.560;13.508;2024-02-16T00:49:58;99849.03;;;9.84;100.00
13734;BME280;43298;52.560;13.508;2024-02-16T00:52:24;99848.88;;;9.87;100.00
13734;BME280;43298;52.560;13.508;2024-02-16T00:54:50;99851.00;;;9.79;100.00
13734;BME280;43298;52.560;13.508;2024-02-16T00:57:16;99850.50;;;9.72;100.00
13734;BME280;43298;52.560;13.508;2024-02-16T00:59:42;99848.16;;;9.68;100.00
13734;BME280;43298;52.560;13.508;2024-02-16T01:02:09;99843.13;;;9.65;100.00
13734;BME280;43298;52.560;13.508;2024-02-16T01:04:37;99838.91;;;9.64;100.00
13734;BME280;43298;52.560;13.508;2024-02-16T01:07:03;99838.59;;;9.70;100.00
13734;BME280;43298;52.560;13.508;2024-02-16T01:09:29;99840.31;;;9.69;100.00
13734;BME280;43298;52.560;13.508;2024-02-16T01:11:55;99834.66;;;9.63;100.00
13734;BME280;43298;52.560;13.508;2024-02-16T01:14:21;99831.66;;;9.55;100.00
13734;BME280;43298;52.560;13.508;2024-02-16T01:16:48;99824.94;;;9.51;100.00
13734;BME280;43298;52.560;13.508;2024-02-16T01:19:14;99825.88;;;9.50;100.00
13734;BME280;43298;52.560;13.508;2024-02-16T01:21:40;99819.97;;;9.48;100.00
13734;BME280;43298;52.560;13.508;2024-02-16T01:24:07;99816.78;;;9.43;100.00
13734;BME280;43298;52.560;13.508;2024-02-16T01:26:34;99809.97;;;9.42;100.00
13734;BME280;43298;52.560;13.508;2024-02-16T01:29:00;99817.00;;;9.38;100.00
13734;BME280;43298;52.560;13.508;2024-02-16T01:31:28;99816.13;;;9.39;100.00
13734;BME280;43298;52.560;13.508;2024-02-16T01:33:54;99819.94;;;9.32;100.00
13734;BME280;43298;52.560;13.508;2024-02-16T01:36:20;99818.50;;;9.27;100.00
13734;BME280;43298;52.560;13.508;2024-02-16T01:38:46;99815.28;;;9.21;100.00
13734;BME280;43298;52.560;13.508;2024-02-16T01:41:12;99810.13;;;9.21;100.00
13734;BME280;43298;52.560;13.508;2024-02-16T01:43:41;99804.09;;;9.23;100.00
13734;BME280;43298;52.560;13.508;2024-02-16T01:46:07;99804.25;;;9.19;100.00
13734;BME280;43298;52.560;13.508;2024-02-16T01:48:33;99805.06;;;9.20;100.00
13734;BME280;43298;52.560;13.508;2024-02-16T01:51:00;99801.03;;;9.14;100.00
13734;BME280;43298;52.560;13.508;2024-02-16T01:53:28;99797.72;;;9.12;100.00
13734;BME280;43298;52.560;13.508;2024-02-16T01:55:54;99795.97;;;9.13;100.00
13734;BME280;43298;52.560;13.508;2024-02-16T01:58:20;99791.78;;;9.10;100.00
13734;BME280;43298;52.560;13.508;2024-02-16T02:00:47;99783.75;;;9.16;100.00
13734;BME280;43298;52.560;13.508;2024-02-16T02:03:13;99779.91;;;9.08;100.00
13734;BME280;43298;52.560;13.508;2024-02-16T02:05:45;99768.66;;;9.09;100.00
13734;BME280;43298;52.560;13.508;2024-02-16T02:08:12;99759.94;;;9.11;100.00
13734;BME280;43298;52.560;13.508;2024-02-16T02:10:44;99762.44;;;9.13;100.00
13734;BME280;43298;52.560;13.508;2024-02-16T02:13:10;99748.47;;;9.17;100.00
13734;BME280;43298;52.560;13.508;2024-02-16T02:15:36;99745.81;;;9.18;100.00
13734;BME280;43298;52.560;13.508;2024-02-16T02:18:03;99740.50;;;9.21;100.00
13734;BME280;43298;52.560;13.508;2024-02-16T02:20:29;99739.00;;;9.17;100.00
13734;BME280;43298;52.560;13.508;2024-02-16T02:22:55;99726.53;;;9.25;100.00
13734;BME280;43298;52.560;13.508;2024-02-16T02:25:21;99720.31;;;9.30;100.00
13734;BME280;43298;52.560;13.508;2024-02-16T02:27:47;99711.13;;;9.24;100.00
13734;BME280;43298;52.560;13.508;2024-02-16T02:30:13;99709.06;;;9.31;100.00
13734;BME280;43298;52.560;13.508;2024-02-16T02:32:39;99707.56;;;9.27;100.00
13734;BME280;43298;52.560;13.508;2024-02-16T02:35:08;99704.22;;;9.24;100.00
13734;BME280;43298;52.560;13.508;2024-02-16T02:37:35;99702.34;;;9.28;100.00
13734;BME280;43298;52.560;13.508;2024-02-16T02:40:01;99702.41;;;9.27;100.00
13734;BME280;43298;52.560;13.508;2024-02-16T02:42:27;99700.06;;;9.22;100.00
13734;BME280;43298;52.560;13.508;2024-02-16T02:44:54;99690.41;;;9.25;100.00
13734;BME280;43298;52.560;13.508;2024-02-16T02:47:20;99702.34;;;9.28;100.00
13734;BME280;43298;52.560;13.508;2024-02-16T02:49:46;99691.75;;;9.32;100.00
13734;BME280;43298;52.560;13.508;2024-02-16T02:52:12;99692.59;;;9.33;100.00
13734;BME280;43298;52.560;13.508;2024-02-16T02:54:38;99689.34;;;9.30;100.00
13734;BME280;43298;52.560;13.508;2024-02-16T02:57:04;99689.25;;;9.31;100.00
13734;BME280;43298;52.560;13.508;2024-02-16T02:59:30;99679.63;;;9.35;100.00
13734;BME280;43298;52.560;13.508;2024-02-16T03:01:56;99684.09;;;9.31;100.00
13734;BME280;43298;52.560;13.508;2024-02-16T03:04:23;99676.47;;;9.30;100.00
13734;BME280;43298;52.560;13.508;2024-02-16T03:06:52;99681.63;;;9.30;100.00
13734;BME280;43298;52.560;13.508;2024-02-16T03:09:18;99676.63;;;9.27;100.00
13734;BME280;43298;52.560;13.508;2024-02-16T03:11:44;99680.00;;;9.27;100.00
13734;BME280;43298;52.560;13.508;2024-02-16T03:14:10;99685.09;;;9.28;100.00
13734;BME280;43298;52.560;13.508;2024-02-16T03:16:36;99683.50;;;9.26;100.00
13734;BME280;43298;52.560;13.508;2024-02-16T03:19:06;99693.25;;;9.21;100.00
13734;BME280;43298;52.560;13.508;2024-02-16T03:21:32;99695.75;;;9.23;100.00
13734;BME280;43298;52.560;13.508;2024-02-16T03:23:58;99695.91;;;9.19;100.00
13734;BME280;43298;52.560;13.508;2024-02-16T03:26:24;99699.72;;;9.12;100.00
13734;BME280;43298;52.560;13.508;2024-02-16T03:28:50;99701.38;;;9.13;100.00
13734;BME280;43298;52.560;13.508;2024-02-16T03:31:21;99704.19;;;9.09;100.00
13734;BME280;43298;52.560;13.508;2024-02-16T03:33:48;99704.13;;;9.10;100.00
13734;BME280;43298;52.560;13.508;2024-02-16T03:36:16;99698.81;;;9.13;100.00
13734;BME280;43298;52.560;13.508;2024-02-16T03:38:43;99694.56;;;9.12;100.00
13734;BME280;43298;52.560;13.508;2024-02-16T03:41:14;99679.97;;;9.11;100.00
13734;BME280;43298;52.560;13.508;2024-02-16T03:43:40;99678.41;;;9.09;100.00
13734;BME280;43298;52.560;13.508;2024-02-16T03:46:07;99682.31;;;9.16;100.00
13734;BME280;43298;52.560;13.508;2024-02-16T03:48:34;99672.09;;;9.14;100.00
13734;BME280;43298;52.560;13.508;2024-02-16T03:51:00;99677.94;;;9.18;100.00
13734;BME280;43298;52.560;13.508;2024-02-16T03:53:27;99682.47;;;9.13;100.00
13734;BME280;43298;52.560;13.508;2024-02-16T03:55:53;99681.59;;;9.14;100.00
13734;BME280;43298;52.560;13.508;2024-02-16T03:58:19;99681.91;;;9.08;100.00
13734;BME280;43298;52.560;13.508;2024-02-16T04:00:45;99682.75;;;9.08;100.00
13734;BME280;43298;52.560;13.508;2024-02-16T04:03:11;99683.91;;;9.18;100.00
13734;BME280;43298;52.560;13.508;2024-02-16T04:05:41;99684.31;;;9.11;100.00
13734;BME280;43298;52.560;13.508;2024-02-16T04:08:07;99677.25;;;9.14;100.00
13734;BME280;43298;52.560;13.508;2024-02-16T04:10:34;99679.97;;;9.11;100.00
13734;BME280;43298;52.560;13.508;2024-02-16T04:13:00;99673.78;;;9.15;100.00
13734;BME280;43298;52.560;13.508;2024-02-16T04:15:27;99679.91;;;9.13;100.00
13734;BME280;43298;52.560;13.508;2024-02-16T04:17:53;99676.59;;;9.11;100.00
13734;BME280;43298;52.560;13.508;2024-02-16T04:20:20;99677.31;;;9.13;100.00
13734;BME280;43298;52.560;13.508;2024-02-16T04:22:46;99682.41;;;9.14;100.00
13734;BME280;43298;52.560;13.508;2024-02-16T04:25:12;99682.31;;;9.16;100.00
13734;BME280;43298;52.560;13.508;2024-02-16T04:27:39;99684.75;;;9.19;100.00
13734;BME280;43298;52.560;13.508;2024-02-16T04:30:06;99684.75;;;9.19;100.00
13734;BME280;43298;52.560;13.508;2024-02-16T04:32:33;99681.59;;;9.14;100.00
13734;BME280;43298;52.560;13.508;2024-02-16T04:34:59;99683.56;;;9.09;100.00
13734;BME280;43298;52.560;13.508;2024-02-16T04:37:25;99678.31;;;9.10;100.00
13734;BME280;43298;52.560;13.508;2024-02-16T04:39:52;99683.72;;;9.06;100.00
13734;BME280;43298;52.560;13.508;2024-02-16T04:42:18;99676.81;;;9.06;100.00
13734;BME280;43298;52.560;13.508;2024-02-16T04:44:44;99680.09;;;9.10;100.00
13734;BME280;43298;52.560;13.508;2024-02-16T04:47:11;99673.41;;;9.06;100.00
13734;BME280;43298;52.560;13.508;2024-02-16T04:49:37;99686.38;;;9.04;100.00
13734;BME280;43298;52.560;13.508;2024-02-16T04:52:04;99680.09;;;9.10;100.00
13734;BME280;43298;52.560;13.508;2024-02-16T04:54:30;99680.97;;;9.09;100.00
13734;BME280;43298;52.560;13.508;2024-02-16T04:56:56;99676.66;;;9.09;100.00
13734;BME280;43298;52.560;13.508;2024-02-16T04:59:22;99676.16;;;9.03;100.00
13734;BME280;43298;52.560;13.508;2024-02-16T05:01:48;99663.78;;;9.09;100.00
13734;BME280;43298;52.560;13.508;2024-02-16T05:04:14;99663.84;;;9.08;100.00
13734;BME280;43298;52.560;13.508;2024-02-16T05:06:46;99660.44;;;9.07;100.00
13734;BME280;43298;52.560;13.508;2024-02-16T05:09:12;99665.44;;;9.10;100.00
13734;BME280;43298;52.560;13.508;2024-02-16T05:11:43;99674.94;;;9.10;100.00
13734;BME280;43298;52.560;13.508;2024-02-16T05:14:10;99668.94;;;9.09;100.00
13734;BME280;43298;52.560;13.508;2024-02-16T05:16:44;99666.19;;;9.12;100.00
13734;BME280;43298;52.560;13.508;2024-02-16T05:19:10;99673.59;;;9.03;100.00
13734;BME280;43298;52.560;13.508;2024-02-16T05:21:36;99670.31;;;8.99;100.00
13734;BME280;43298;52.560;13.508;2024-02-16T05:24:03;99678.22;;;8.96;100.00
13734;BME280;43298;52.560;13.508;2024-02-16T05:26:29;99679.91;;;8.97;100.00
13734;BME280;43298;52.560;13.508;2024-02-16T05:28:55;99679.06;;;8.97;100.00
13734;BME280;43298;52.560;13.508;2024-02-16T05:31:22;99669.75;;;8.94;100.00
13734;BME280;43298;52.560;13.508;2024-02-16T05:33:49;99662.81;;;8.95;100.00
13734;BME280;43298;52.560;13.508;2024-02-16T05:36:22;99668.25;;;8.90;100.00
13734;BME280;43298;52.560;13.508;2024-02-16T05:38:53;99666.63;;;8.88;100.00
13734;BME280;43298;52.560;13.508;2024-02-16T05:41:22;99658.91;;;8.88;100.00
13734;BME280;43298;52.560;13.508;2024-02-16T05:43:48;99663.09;;;8.90;100.00
13734;BME280;43298;52.560;13.508;2024-02-16T05:46:17;99660.31;;;8.93;100.00
13734;BME280;43298;52.560;13.508;2024-02-16T05:48:44;99654.44;;;8.91;100.00
13734;BME280;43298;52.560;13.508;2024-02-16T05:51:11;99652.28;;;8.99;100.00
13734;BME280;43298;52.560;13.508;2024-02-16T05:53:39;99644.63;;;8.98;100.00
13734;BME280;43298;52.560;13.508;2024-02-16T05:56:06;99645.22;;;9.03;100.00
13734;BME280;43298;52.560;13.508;2024-02-16T05:58:33;99642.72;;;9.01;100.00
13734;BME280;43298;52.560;13.508;2024-02-16T06:00:59;99648.97;;;8.97;100.00
13734;BME280;43298;52.560;13.508;2024-02-16T06:03:25;99653.94;;;9.00;100.00
13734;BME280;43298;52.560;13.508;2024-02-16T06:05:52;99655.63;;;9.01;100.00
13734;BME280;43298;52.560;13.508;2024-02-16T06:08:19;99652.84;;;9.04;100.00
13734;BME280;43298;52.560;13.508;2024-02-16T06:10:46;99665.41;;;8.95;100.00
13734;BME280;43298;52.560;13.508;2024-02-16T06:13:20;99659.75;;;8.88;100.00
13734;BME280;43298;52.560;13.508;2024-02-16T06:15:46;99658.91;;;8.88;100.00
13734;BME280;43298;52.560;13.508;2024-02-16T06:18:13;99660.41;;;8.92;100.00
13734;BME280;43298;52.560;13.508;2024-02-16T06:20:39;99656.09;;;8.92;100.00
13734;BME280;43298;52.560;13.508;2024-02-16T06:23:05;99648.44;;;8.91;100.00
13734;BME280;43298;52.560;13.508;2024-02-16T06:25:32;99656.56;;;8.83;100.00
13734;BME280;43298;52.560;13.508;2024-02-16T06:27:58;99658.91;;;8.88;100.00
13734;BME280;43298;52.560;13.508;2024-02-16T06:30:24;99658.28;;;9.00;100.00
13734;BME280;43298;52.560;13.508;2024-02-16T06:32:50;99655.78;;;8.98;100.00
13734;BME280;43298;52.560;13.508;2024-02-16T06:35:16;99656.34;;;9.03;100.00
13734;BME280;43298;52.560;13.508;2024-02-16T06:37:43;99656.13;;;9.08;100.00
13734;BME280;43298;52.560;13.508;2024-02-16T06:40:09;99654.03;;;9.14;100.00
13734;BME280;43298;52.560;13.508;2024-02-16T06:42:36;99656.69;;;9.13;100.00
13734;BME280;43298;52.560;13.508;2024-02-16T06:45:03;99653.22;;;9.14;100.00
13734;BME280;43298;52.560;13.508;2024-02-16T06:47:29;99658.31;;;9.15;100.00
13734;BME280;43298;52.560;13.508;2024-02-16T06:49:55;99659.97;;;9.16;100.00
13734;BME280;43298;52.560;13.508;2024-02-16T06:52:21;99655.13;;;9.26;100.00
13734;BME280;43298;52.560;13.508;2024-02-16T06:54:47;99663.06;;;9.39;100.00
13734;BME280;43298;52.560;13.508;2024-02-16T06:57:15;99679.63;;;9.35;100.00
13734;BME280;43298;52.560;13.508;2024-02-16T06:59:42;99664.72;;;9.40;100.00
13734;BME280;43298;52.560;13.508;2024-02-16T07:02:08;99667.91;;;9.45;100.00
13734;BME280;43298;52.560;13.508;2024-02-16T07:04:35;99670.72;;;9.40;100.00
13734;BME280;43298;52.560;13.508;2024-02-16T07:07:01;99673.44;;;9.37;100.00
13734;BME280;43298;52.560;13.508;2024-02-16T07:09:27;99669.38;;;9.33;100.00
13734;BME280;43298;52.560;13.508;2024-02-16T07:11:53;99668.44;;;9.34;100.00
13734;BME280;43298;52.560;13.508;2024-02-16T07:14:19;99673.53;;;9.36;100.00
13734;BME280;43298;52.560;13.508;2024-02-16T07:16:46;99669.47;;;9.32;100.00
13734;BME280;43298;52.560;13.508;2024-02-16T07:19:12;99677.78;;;9.37;100.00
13734;BME280;43298;52.560;13.508;2024-02-16T07:21:38;99678.84;;;9.32;100.00
13734;BME280;43298;52.560;13.508;2024-02-16T07:24:05;99676.13;;;9.36;100.00
13734;BME280;43298;52.560;13.508;2024-02-16T07:26:31;99684.63;;;9.38;100.00
13734;BME280;43298;52.560;13.508;2024-02-16T07:28:57;99687.19;;;9.38;100.00
13734;BME280;43298;52.560;13.508;2024-02-16T07:31:23;99681.28;;;9.36;100.00
13734;BME280;43298;52.560;13.508;2024-02-16T07:33:49;99681.19;;;9.37;100.00
13734;BME280;43298;52.560;13.508;2024-02-16T07:36:15;99683.53;;;9.42;100.00
13734;BME280;43298;52.560;13.508;2024-02-16T07:38:43;99678.88;;;9.48;100.00
13734;BME280;43298;52.560;13.508;2024-02-16T07:41:10;99673.63;;;9.50;100.00
13734;BME280;43298;52.560;13.508;2024-02-16T07:43:36;99666.13;;;9.61;100.00
13734;BME280;43298;52.560;13.508;2024-02-16T07:46:02;99674.13;;;9.72;100.00
13734;BME280;43298;52.560;13.508;2024-02-16T07:48:29;99668.13;;;9.87;100.00
13734;BME280;43298;52.560;13.508;2024-02-16T07:50:55;99662.25;;;9.99;100.00
13734;BME280;43298;52.560;13.508;2024-02-16T07:53:24;99659.50;;;10.17;100.00
13734;BME280;43298;52.560;13.508;2024-02-16T07:55:50;99666.13;;;10.37;100.00
13734;BME280;43298;52.560;13.508;2024-02-16T07:58:16;99656.91;;;10.61;100.00
13734;BME280;43298;52.560;13.508;2024-02-16T08:00:42;99653.25;;;10.93;100.00
13734;BME280;43298;52.560;13.508;2024-02-16T08:03:09;99644.94;;;11.16;100.00
13734;BME280;43298;52.560;13.508;2024-02-16T08:05:35;99635.44;;;11.43;100.00
13734;BME280;43298;52.560;13.508;2024-02-16T08:08:01;99636.91;;;11.61;100.00
13734;BME280;43298;52.560;13.508;2024-02-16T08:10:27;99626.78;;;11.84;100.00
13734;BME280;43298;52.560;13.508;2024-02-16T08:12:53;99592.50;;;12.06;100.00
13734;BME280;43298;52.560;13.508;2024-02-16T08:15:19;99503.56;;;12.56;100.00
13734;BME280;43298;52.560;13.508;2024-02-16T08:17:50;99368.94;;;12.76;100.00
13734;BME280;43298;52.560;13.508;2024-02-16T08:20:19;99235.44;;;13.04;100.00
13734;BME280;43298;52.560;13.508;2024-02-16T08:22:46;99137.75;;;13.36;100.00
13734;BME280;43298;52.560;13.508;2024-02-16T08:25:12;99097.88;;;13.15;100.00
13734;BME280;43298;52.560;13.508;2024-02-16T08:27:39;99071.78;;;13.27;100.00
13734;BME280;43298;52.560;13.508;2024-02-16T08:30:06;99056.25;;;13.16;100.00
13734;BME280;43298;52.560;13.508;2024-02-16T08:32:32;99062.25;;;12.84;100.00
13734;BME280;43298;52.560;13.508;2024-02-16T08:34:58;99060.47;;;12.95;100.00
13734;BME280;43298;52.560;13.508;2024-02-16T08:37:25;99062.13;;;12.96;100.00
13734;BME280;43298;52.560;13.508;2024-02-16T08:39:51;99060.72;;;13.03;100.00
13734;BME280;43298;52.560;13.508;2024-02-16T08:42:18;99066.41;;;13.08;100.00
13734;BME280;43298;52.560;13.508;2024-02-16T08:44:44;99071.31;;;12.89;100.00
13734;BME280;43298;52.560;13.508;2024-02-16T08:47:10;99057.56;;;13.00;100.00
13734;BME280;43298;52.560;13.508;2024-02-16T08:49:36;99069.91;;;12.96;100.00
13734;BME280;43298;52.560;13.508;2024-02-16T08:52:05;99077.69;;;12.96;100.00
13734;BME280;43298;52.560;13.508;2024-02-16T08:54:32;99092.69;;;12.93;100.00
13734;BME280;43298;52.560;13.508;2024-02-16T08:56:58;99094.94;;;12.97;100.00
13734;BME280;43298;52.560;13.508;2024-02-16T08:59:24;99100.84;;;12.99;100.00
13734;BME280;43298;52.560;13.508;2024-02-16T09:01:51;99108.38;;;12.91;100.00
13734;BME280;43298;52.560;13.508;2024-02-16T09:04:17;99119.94;;;12.87;100.00
13734;BME280;43298;52.560;13.508;2024-02-16T09:06:43;99118.84;;;12.79;100.00
13734;BME280;43298;52.560;13.508;2024-02-16T09:09:09;99116.72;;;12.84;100.00
13734;BME280;43298;52.560;13.508;2024-02-16T09:11:36;99114.63;;;12.78;100.00
13734;BME280;43298;52.560;13.508;2024-02-16T09:14:02;99113.78;;;12.77;100.00
13734;BME280;43298;52.560;13.508;2024-02-16T09:16:29;99116.72;;;12.73;100.00
13734;BME280;43298;52.560;13.508;2024-02-16T09:18:57;99121.09;;;12.61;100.00
13734;BME280;43298;52.560;13.508;2024-02-16T09:21:24;99123.31;;;12.55;100.00
13734;BME280;43298;52.560;13.508;2024-02-16T09:23:53;99116.91;;;12.48;100.00
13734;BME280;43298;52.560;13.508;2024-02-16T09:26:19;99123.88;;;12.47;100.00
13734;BME280;43298;52.560;13.508;2024-02-16T09:28:45;99125.50;;;12.37;100.00
13734;BME280;43298;52.560;13.508;2024-02-16T09:31:14;99120.47;;;12.47;100.00
13734;BME280;43298;52.560;13.508;2024-02-16T09:33:41;99119.28;;;12.51;100.00
13734;BME280;43298;52.560;13.508;2024-02-16T09:36:07;99105.25;;;12.53;100.00
13734;BME280;43298;52.560;13.508;2024-02-16T09:38:33;99106.94;;;12.65;100.00
13734;BME280;43298;52.560;13.508;2024-02-16T09:41:00;99085.13;;;12.79;100.00
13734;BME280;43298;52.560;13.508;2024-02-16T09:43:29;99064.59;;;12.98;100.00
13734;BME280;43298;52.560;13.508;2024-02-16T09:45:58;99069.66;;;13.21;100.00
13734;BME280;43298;52.560;13.508;2024-02-16T09:48:29;99050.44;;;13.87;100.00
13734;BME280;43298;52.560;13.508;2024-02-16T09:50:56;99059.59;;;14.02;100.00
13734;BME280;43298;52.560;13.508;2024-02-16T09:53:25;99081.44;;;13.99;100.00
13734;BME280;43298;52.560;13.508;2024-02-16T09:55:53;99090.25;;;13.87;100.00
13734;BME280;43298;52.560;13.508;2024-02-16T09:58:20;99099.69;;;13.88;100.00
13734;BME280;43298;52.560;13.508;2024-02-16T10:00:53;99101.41;;;13.78;100.00
13734;BME280;43298;52.560;13.508;2024-02-16T10:03:30;99107.03;;;13.83;100.00
13734;BME280;43298;52.560;13.508;2024-02-16T10:06:07;99117.19;;;13.86;100.00
13734;BME280;43298;52.560;13.508;2024-02-16T10:08:34;99121.44;;;13.87;100.00
13734;BME280;43298;52.560;13.508;2024-02-16T10:11:04;99123.03;;;13.99;100.00
13734;BME280;43298;52.560;13.508;2024-02-16T10:13:34;99131.63;;;14.11;100.00
13734;BME280;43298;52.560;13.508;2024-02-16T10:16:10;99127.81;;;14.15;100.00
13734;BME280;43298;52.560;13.508;2024-02-16T10:18:38;99125.66;;;14.31;100.00
13734;BME280;43298;52.560;13.508;2024-02-16T10:21:04;99139.03;;;14.26;100.00
13734;BME280;43298;52.560;13.508;2024-02-16T10:23:31;99150.00;;;14.19;100.00
13734;BME280;43298;52.560;13.508;2024-02-16T10:25:58;99151.91;;;14.17;100.00
13734;BME280;43298;52.560;13.508;2024-02-16T10:28:26;99141.28;;;14.20;100.00
13734;BME280;43298;52.560;13.508;2024-02-16T10:30:58;99158.88;;;14.16;100.00
13734;BME280;43298;52.560;13.508;2024-02-16T10:33:28;99162.19;;;14.18;100.00
13734;BME280;43298;52.560;13.508;2024-02-16T10:35:58;99166.91;;;14.24;100.00
13734;BME280;43298;52.560;13.508;2024-02-16T10:38:26;99167.63;;;14.26;100.00
13734;BME280;43298;52.560;13.508;2024-02-16T10:40:53;99154.75;;;14.45;100.00
13734;BME280;43298;52.560;13.508;2024-02-16T10:43:22;99165.63;;;14.50;100.00
13734;BME280;43298;52.560;13.508;2024-02-16T10:45:49;99175.31;;;14.48;100.00
13734;BME280;43298;52.560;13.508;2024-02-16T10:48:18;99173.91;;;14.44;100.00
13734;BME280;43298;52.560;13.508;2024-02-16T10:50:45;99177.66;;;14.51;100.00
13734;BME280;43298;52.560;13.508;2024-02-16T10:53:26;99183.13;;;14.48;100.00
13734;BME280;43298;52.560;13.508;2024-02-16T10:55:53;99178.63;;;14.50;100.00
13734;BME280;43298;52.560;13.508;2024-02-16T10:58:23;99177.13;;;14.48;100.00
13734;BME280;43298;52.560;13.508;2024-02-16T11:00:56;99187.81;;;14.34;100.00
13734;BME280;43298;52.560;13.508;2024-02-16T11:03:26;99195.75;;;14.21;100.00
13734;BME280;43298;52.560;13.508;2024-02-16T11:05:54;99185.59;;;14.29;100.00
13734;BME280;43298;52.560;13.508;2024-02-16T11:08:23;99187.59;;;14.26;100.00
13734;BME280;43298;52.560;13.508;2024-02-16T11:13:25;99174.81;;;14.34;100.00
13734;BME280;43298;52.560;13.508;2024-02-16T11:15:59;99170.47;;;14.44;100.00
13734;BME280;43298;52.560;13.508;2024-02-16T11:18:31;99157.94;;;14.49;100.00
13734;BME280;43298;52.560;13.508;2024-02-16T11:21:04;99155.16;;;14.61;100.00
13734;BME280;43298;52.560;13.508;2024-02-16T11:23:35;99160.66;;;14.68;100.00
13734;BME280;43298;52.560;13.508;2024-02-16T11:26:02;99150.13;;;14.69;100.00
13734;BME280;43298;52.560;13.508;2024-02-16T11:28:32;99162.88;;;14.72;100.00
13734;BME280;43298;52.560;13.508;2024-02-16T11:30:59;99163.78;;;14.82;100.00
13734;BME280;43298;52.560;13.508;2024-02-16T11:33:26;99157.22;;;14.88;100.00
13734;BME280;43298;52.560;13.508;2024-02-16T11:36:04;99172.72;;;14.89;100.00
13734;BME280;43298;52.560;13.508;2024-02-16T11:38:32;99174.34;;;14.90;100.00
13734;BME280;43298;52.560;13.508;2024-02-16T11:41:03;99159.00;;;14.87;100.00
13734;BME280;43298;52.560;13.508;2024-02-16T11:43:31;99163.06;;;14.80;100.00
13734;BME280;43298;52.560;13.508;2024-02-16T11:45:58;99157.91;;;14.90;100.00
13734;BME280;43298;52.560;13.508;2024-02-16T11:48:26;99159.63;;;15.00;100.00
13734;BME280;43298;52.560;13.508;2024-02-16T11:51:03;99142.56;;;15.17;100.00
13734;BME280;43298;52.560;13.508;2024-02-16T11:53:30;99140.34;;;15.43;100.00
13734;BME280;43298;52.560;13.508;2024-02-16T11:55:56;99145.09;;;15.87;100.00
13734;BME280;43298;52.560;13.508;2024-02-16T11:58:23;99143.19;;;16.46;100.00
13734;BME280;43298;52.560;13.508;2024-02-16T12:00:50;99183.97;;;16.56;100.00
13734;BME280;43298;52.560;13.508;2024-02-16T12:03:21;99223.13;;;16.47;100.00
13734;BME280;43298;52.560;13.508;2024-02-16T12:05:55;99248.09;;;16.40;100.00
13734;BME280;43298;52.560;13.508;2024-02-16T12:08:22;99245.63;;;16.57;100.00
13734;BME280;43298;52.560;13.508;2024-02-16T12:10:49;99244.38;;;16.90;100.00
13734;BME280;43298;52.560;13.508;2024-02-16T12:13:17;99253.50;;;17.32;100.00
13734;BME280;43298;52.560;13.508;2024-02-16T12:15:45;99295.19;;;17.33;100.00
13734;BME280;43298;52.560;13.508;2024-02-16T12:18:18;99317.56;;;17.55;100.00
13734;BME280;43298;52.560;13.508;2024-02-16T12:20:45;99376.75;;;17.56;100.00
13734;BME280;43298;52.560;13.508;2024-02-16T12:23:14;99388.69;;;17.58;100.00
13734;BME280;43298;52.560;13.508;2024-02-16T12:25:40;99419.13;;;17.50;100.00
13734;BME280;43298;52.560;13.508;2024-02-16T12:28:06;99438.22;;;17.50;100.00
13734;BME280;43298;52.560;13.508;2024-02-16T12:30:33;99421.44;;;17.53;100.00
13734;BME280;43298;52.560;13.508;2024-02-16T12:32:59;99414.13;;;17.66;100.00
13734;BME280;43298;52.560;13.508;2024-02-16T12:35:27;99418.53;;;17.75;100.00
13734;BME280;43298;52.560;13.508;2024-02-16T12:37:53;99408.72;;;17.87;100.00
13734;BME280;43298;52.560;13.508;2024-02-16T12:40:19;99458.13;;;17.89;100.00
13734;BME280;43298;52.560;13.508;2024-02-16T12:42:45;99485.88;;;18.19;100.00
13734;BME280;43298;52.560;13.508;2024-02-16T12:45:13;99515.41;;;18.48;100.00
13734;BME280;43298;52.560;13.508;2024-02-16T12:47:42;99551.13;;;18.49;100.00